Ouricuri, Brazil
Current Conditions -  °F | °C
As of 10:00 PM on Tuesday 21 Oct 2014 (Local Time) from SBJU Reporting Station
Clear Clear  
Wind Chill: 88°   Ceiling: Unl
Heat Index: 93°   Visibility: 6mi
Dew Point: 70°   Wind: 2mph
Humidity: 55%   Direction: 100°E
Pressure: 30"   Gusts: NA
Location:  7.88°S, 40.08°W
Report Text: SBJU 220100Z 10002KT CAVOK 31/21 Q1016
Loading
Personal Weather Stations






























Interactive Weather Map
Tropical Storm Tracking
New forecast layout! Learn more

10-Day Weather Forecast

Advertisements
Track Severe Weather on mobile